Time;durP1;ratioP1;P1;durP2;ratioP2;P2;SDS_P1;SDS_P2;PMS_P1;PMS_P2;Temp;Humidity;BMP_temperature;BMP_pressure;BME280_temperature;BME280_humidity;BME280_pressure;Samples;Min_cycle;Max_cycle;Signal;HPM_P1;HPM_P2
2022/04/30 00:00:29;;;;;;;4.68;1.15;;;17.50;99.90;;;;;;5027737;28;20513;-69
2022/04/30 00:03:00;;;;;;;3.30;1.10;;;17.50;99.90;;;;;;5034454;28;20065;-69
2022/04/30 00:05:32;;;;;;;4.43;1.05;;;17.50;99.90;;;;;;5025364;28;20028;-69
2022/04/30 00:08:01;;;;;;;4.00;1.08;;;17.50;99.90;;;;;;5034704;28;20108;-68
2022/04/30 00:10:29;;;;;;;2.70;0.88;;;17.60;99.90;;;;;;5035041;28;20021;-68
2022/04/30 00:12:56;;;;;;;4.45;0.95;;;17.50;99.90;;;;;;5037973;28;20030;-69
2022/04/30 00:15:24;;;;;;;5.95;1.00;;;17.60;99.90;;;;;;5028670;28;20543;-68
2022/04/30 00:17:51;;;;;;;6.78;1.88;;;17.60;99.90;;;;;;5041601;28;20037;-68
2022/04/30 00:20:18;;;;;;;5.45;1.00;;;17.70;99.90;;;;;;5032088;28;20056;-68
2022/04/30 00:22:46;;;;;;;9.18;2.03;;;17.90;99.90;;;;;;5033350;28;20017;-68
2022/04/30 00:25:14;;;;;;;11.57;2.17;;;18.00;99.90;;;;;;5031581;28;20385;-68
2022/04/30 00:27:41;;;;;;;5.63;1.45;;;18.10;99.90;;;;;;5033609;28;20112;-68
2022/04/30 00:30:10;;;;;;;6.10;1.30;;;18.20;99.90;;;;;;5024145;28;20029;-68
2022/04/30 00:32:37;;;;;;;5.47;1.17;;;18.20;99.90;;;;;;5028224;28;20108;-68
2022/04/30 00:35:05;;;;;;;5.03;1.23;;;18.20;99.90;;;;;;5028393;28;20075;-68
2022/04/30 00:37:33;;;;;;;1.95;0.70;;;18.10;99.90;;;;;;5026562;28;20025;-68
2022/04/30 00:40:00;;;;;;;1.92;0.60;;;18.00;99.90;;;;;;5027898;28;20466;-68
2022/04/30 00:42:28;;;;;;;2.20;0.60;;;17.90;99.90;;;;;;5032757;28;20029;-68
2022/04/30 00:44:55;;;;;;;1.58;0.40;;;18.00;99.90;;;;;;5028786;28;20533;-67
2022/04/30 00:47:24;;;;;;;2.97;0.60;;;17.90;99.90;;;;;;5023601;28;20021;-68
2022/04/30 00:49:52;;;;;;;1.70;0.60;;;17.80;99.90;;;;;;5019348;28;20112;-67
2022/04/30 00:52:19;;;;;;;1.58;0.43;;;17.90;99.90;;;;;;5039429;28;20389;-66
2022/04/30 00:54:50;;;;;;;2.20;0.40;;;17.80;99.90;;;;;;5025769;28;20079;-67
2022/04/30 00:57:24;;;;;;;3.17;0.38;;;17.80;99.90;;;;;;5028487;28;20025;-66
2022/04/30 01:00:01;;;;;;;4.15;0.52;;;17.80;99.90;;;;;;5024836;28;20026;-66
2022/04/30 01:02:30;;;;;;;1.85;0.50;;;17.90;99.90;;;;;;5028619;28;20046;-69
2022/04/30 01:04:58;;;;;;;2.15;0.85;;;18.00;99.90;;;;;;5028656;28;20025;-69
2022/04/30 01:07:27;;;;;;;1.35;0.43;;;18.00;99.90;;;;;;5025313;28;20037;-69
2022/04/30 01:09:55;;;;;;;1.25;0.40;;;17.80;99.90;;;;;;5030890;28;20069;-69
2022/04/30 01:12:23;;;;;;;1.77;0.43;;;17.90;99.90;;;;;;5027284;28;20021;-69
2022/04/30 01:14:56;;;;;;;1.67;0.50;;;18.00;99.90;;;;;;5024299;28;20037;-69
2022/04/30 01:17:23;;;;;;;0.88;0.30;;;18.00;99.90;;;;;;5030766;28;20097;-69
2022/04/30 01:19:51;;;;;;;1.17;0.40;;;18.00;99.90;;;;;;5030730;28;20430;-69
2022/04/30 01:22:27;;;;;;;0.95;0.40;;;18.10;99.90;;;;;;5030713;28;20521;-69
2022/04/30 01:24:59;;;;;;;1.73;0.60;;;18.10;99.90;;;;;;5029083;28;20021;-69
2022/04/30 01:27:30;;;;;;;1.00;0.40;;;18.20;99.90;;;;;;5037629;28;20122;-69
2022/04/30 01:30:03;;;;;;;1.20;0.30;;;18.20;99.90;;;;;;5024494;28;20517;-69
2022/04/30 01:38:10;;;;;;;2.55;0.40;;;18.20;99.90;;;;;;5025677;28;20096;-69
2022/04/30 01:40:38;;;;;;;2.75;0.60;;;18.30;99.90;;;;;;5016695;28;20026;-69
2022/04/30 01:43:07;;;;;;;0.95;0.50;;;18.30;99.90;;;;;;5017451;28;20092;-69
2022/04/30 01:45:36;;;;;;;3.72;0.80;;;18.30;99.90;;;;;;5021718;28;20070;-69
2022/04/30 01:48:05;;;;;;;4.70;1.05;;;18.30;99.90;;;;;;5033218;28;20079;-69
2022/04/30 01:50:34;;;;;;;1.15;0.30;;;18.30;99.90;;;;;;5032751;28;20108;-69
2022/04/30 01:53:02;;;;;;;1.35;0.60;;;18.20;99.90;;;;;;5029221;28;20021;-69
2022/04/30 01:55:30;;;;;;;2.97;0.75;;;18.10;99.90;;;;;;5034086;28;20048;-69
2022/04/30 01:57:57;;;;;;;1.35;0.40;;;18.10;99.90;;;;;;5052246;28;20054;-68
2022/04/30 02:00:25;;;;;;;4.43;0.60;;;18.10;99.90;;;;;;5045620;28;20432;-68
2022/04/30 02:02:55;;;;;;;1.35;0.60;;;18.20;99.90;;;;;;5022505;28;20081;-69
2022/04/30 02:05:26;;;;;;;1.60;0.55;;;18.20;99.90;;;;;;5001353;28;20038;-69
2022/04/30 02:08:14;;;;;;;1.17;0.47;;;18.30;99.90;;;;;;5011963;28;20036;-69
2022/04/30 02:10:43;;;;;;;1.77;0.40;;;18.30;99.90;;;;;;5003441;28;20030;-69
2022/04/30 02:13:11;;;;;;;1.20;0.65;;;18.30;99.90;;;;;;5013053;28;20490;-69
2022/04/30 02:15:40;;;;;;;2.47;0.35;;;18.20;99.90;;;;;;5007757;28;20632;-69
2022/04/30 02:18:15;;;;;;;2.10;0.40;;;18.10;99.90;;;;;;5013309;28;20029;-69
2022/04/30 02:20:48;;;;;;;2.80;0.80;;;18.10;99.90;;;;;;5007998;28;20026;-69
2022/04/30 02:23:16;;;;;;;2.70;0.53;;;18.10;99.90;;;;;;5010961;28;20030;-69
2022/04/30 02:25:45;;;;;;;2.05;0.40;;;18.10;99.90;;;;;;4997115;28;20284;-69
2022/04/30 02:28:12;;;;;;;3.80;0.65;;;18.20;99.90;;;;;;4996774;28;20038;-69
2022/04/30 02:30:39;;;;;;;2.63;0.90;;;18.30;99.90;;;;;;5002845;28;20479;-69
2022/04/30 02:33:07;;;;;;;2.67;0.70;;;18.30;99.90;;;;;;5008813;28;20040;-69
2022/04/30 02:35:35;;;;;;;3.90;2.00;;;18.30;99.90;;;;;;5011385;28;20054;-69
2022/04/30 02:38:08;;;;;;;3.35;1.83;;;18.20;99.90;;;;;;5011218;28;20065;-69
2022/04/30 02:40:37;;;;;;;5.18;2.58;;;18.20;99.90;;;;;;5008285;28;20097;-69
2022/04/30 02:43:06;;;;;;;3.47;1.40;;;18.20;99.90;;;;;;5008480;28;20034;-69
2022/04/30 02:45:38;;;;;;;2.95;1.55;;;18.10;99.90;;;;;;5001390;28;20410;-69
2022/04/30 02:48:07;;;;;;;7.10;3.05;;;18.10;99.90;;;;;;5010705;28;20037;-69
2022/04/30 02:50:36;;;;;;;9.15;6.93;;;18.20;99.90;;;;;;5008998;28;20117;-69
2022/04/30 02:53:04;;;;;;;7.35;2.38;;;18.20;99.90;;;;;;4996293;28;20486;-69
2022/04/30 02:55:32;;;;;;;2.95;1.10;;;18.20;99.90;;;;;;5011857;28;20057;-69
2022/04/30 03:00:51;;;;;;;5.75;1.25;;;18.20;99.90;;;;;;5003728;28;20548;-69
2022/04/30 03:03:19;;;;;;;3.30;1.30;;;18.20;99.90;;;;;;5024634;28;20061;-69
2022/04/30 03:05:50;;;;;;;4.22;1.52;;;18.20;99.90;;;;;;5030668;28;20025;-69
2022/04/30 03:08:23;;;;;;;3.42;1.33;;;18.20;99.90;;;;;;5032631;28;20196;-69
2022/04/30 03:10:55;;;;;;;5.05;1.80;;;18.30;99.90;;;;;;5034836;28;20027;-69
2022/04/30 03:13:24;;;;;;;4.85;2.10;;;18.20;99.90;;;;;;5034757;28;20468;-69
2022/04/30 03:15:53;;;;;;;2.83;1.60;;;18.30;99.90;;;;;;5032699;28;20030;-69
2022/04/30 03:23:55;;;;;;;4.97;1.63;;;18.40;99.90;;;;;;5030888;28;20044;-69
2022/04/30 03:26:26;;;;;;;4.15;1.80;;;18.30;99.90;;;;;;5018200;28;20049;-69
2022/04/30 03:28:54;;;;;;;6.03;2.08;;;18.40;99.90;;;;;;5015110;28;20483;-69
2022/04/30 03:31:21;;;;;;;3.45;1.30;;;18.40;99.90;;;;;;5019176;28;20030;-69
2022/04/30 03:33:50;;;;;;;4.05;1.55;;;18.30;99.90;;;;;;5020668;28;20398;-69
2022/04/30 03:36:20;;;;;;;4.15;1.80;;;18.40;99.90;;;;;;5015361;28;20053;-69
2022/04/30 03:38:48;;;;;;;4.25;2.42;;;18.40;99.90;;;;;;5033665;28;20128;-69
2022/04/30 03:41:15;;;;;;;4.68;2.40;;;18.50;99.90;;;;;;5032202;28;20036;-69
2022/04/30 03:43:43;;;;;;;7.05;2.40;;;18.50;99.90;;;;;;5032331;28;20079;-69
2022/04/30 03:46:10;;;;;;;2.75;1.00;;;18.60;99.90;;;;;;5034122;28;20458;-69
2022/04/30 03:48:37;;;;;;;5.47;1.08;;;18.60;99.90;;;;;;5035673;28;20529;-69
2022/04/30 03:51:06;;;;;;;2.13;1.17;;;18.60;99.90;;;;;;5022908;28;20022;-69
2022/04/30 03:53:33;;;;;;;4.90;1.17;;;18.60;99.90;;;;;;5016777;28;20536;-69
2022/04/30 03:56:01;;;;;;;1.95;0.75;;;18.50;99.90;;;;;;5027922;28;20374;-69
2022/04/30 03:58:29;;;;;;;3.30;1.45;;;18.50;99.90;;;;;;5035534;28;20053;-69
2022/04/30 04:00:57;;;;;;;3.22;0.98;;;18.50;99.90;;;;;;5031892;28;20053;-69
2022/04/30 04:03:24;;;;;;;4.32;1.15;;;18.40;99.90;;;;;;5020231;28;20056;-69
2022/04/30 04:05:51;;;;;;;2.75;1.10;;;18.50;99.90;;;;;;5033504;28;20025;-68
2022/04/30 04:08:20;;;;;;;3.20;1.00;;;18.50;99.90;;;;;;5034884;28;20052;-69
2022/04/30 04:10:48;;;;;;;2.35;1.00;;;18.50;99.90;;;;;;5014522;28;20034;-69
2022/04/30 04:18:51;;;;;;;1.77;1.05;;;18.60;99.90;;;;;;5033976;28;20064;-69
2022/04/30 04:21:20;;;;;;;4.35;0.70;;;18.40;99.90;;;;;;5029536;28;20481;-69
2022/04/30 04:26:33;;;;;;;3.85;1.25;;;18.50;99.90;;;;;;5030845;28;20127;-69
2022/04/30 04:29:00;;;;;;;2.78;1.08;;;18.60;99.90;;;;;;5018123;28;20036;-69
2022/04/30 04:31:27;;;;;;;2.85;1.05;;;18.70;99.90;;;;;;5033508;28;20034;-69
2022/04/30 04:33:54;;;;;;;5.18;0.93;;;18.80;99.90;;;;;;5023554;28;20204;-69
2022/04/30 04:36:22;;;;;;;2.97;1.05;;;18.90;99.90;;;;;;5031765;28;20572;-69
2022/04/30 04:38:49;;;;;;;1.67;0.70;;;19.00;99.90;;;;;;5030054;28;20048;-68
2022/04/30 04:41:16;;;;;;;4.22;1.02;;;19.00;99.90;;;;;;5025124;28;20075;-69
2022/04/30 04:43:43;;;;;;;2.80;1.00;;;18.90;99.90;;;;;;5026030;28;20040;-68
2022/04/30 04:46:11;;;;;;;2.00;0.90;;;18.70;99.90;;;;;;5022811;28;20029;-69
2022/04/30 04:48:39;;;;;;;3.00;0.90;;;18.70;99.90;;;;;;5030589;28;20493;-68
2022/04/30 04:51:07;;;;;;;3.88;1.30;;;18.80;99.90;;;;;;5023970;28;20075;-68
2022/04/30 04:53:35;;;;;;;3.63;0.85;;;19.00;99.90;;;;;;5023276;28;20061;-69
2022/04/30 04:56:03;;;;;;;2.92;0.90;;;19.10;99.90;;;;;;5031566;28;20478;-68
2022/04/30 04:58:31;;;;;;;2.67;1.00;;;19.10;99.90;;;;;;5026742;28;20021;-68
2022/04/30 05:00:58;;;;;;;1.88;0.73;;;19.10;99.90;;;;;;5031173;28;20153;-69
2022/04/30 05:03:25;;;;;;;1.80;0.75;;;19.30;99.90;;;;;;5031549;28;20073;-69
2022/04/30 05:05:52;;;;;;;1.42;0.52;;;19.20;99.90;;;;;;5018851;28;20022;-68
2022/04/30 05:08:20;;;;;;;4.32;0.70;;;19.20;99.90;;;;;;5046072;28;20024;-68
2022/04/30 05:10:47;;;;;;;3.85;1.10;;;19.20;99.90;;;;;;5036389;28;20025;-68
2022/04/30 05:13:14;;;;;;;1.88;0.77;;;19.40;99.90;;;;;;5037062;28;20517;-69
2022/04/30 05:15:43;;;;;;;1.35;0.50;;;19.50;99.90;;;;;;5025098;28;20038;-68
2022/04/30 05:18:10;;;;;;;4.10;0.73;;;19.30;99.90;;;;;;5029745;28;20037;-69
2022/04/30 05:20:38;;;;;;;3.15;1.17;;;19.40;99.90;;;;;;5023103;28;20030;-69
2022/04/30 05:23:05;;;;;;;2.70;0.88;;;19.50;99.90;;;;;;5030504;28;20381;-69
2022/04/30 05:25:33;;;;;;;2.17;0.93;;;19.60;99.90;;;;;;5031723;28;20056;-69
2022/04/30 05:28:00;;;;;;;3.70;0.73;;;19.50;99.90;;;;;;5019733;28;20080;-70
2022/04/30 05:30:27;;;;;;;4.53;0.73;;;19.60;99.90;;;;;;5022810;28;20026;-70
2022/04/30 05:32:54;;;;;;;6.03;1.33;;;19.60;99.90;;;;;;5029954;28;20041;-70
2022/04/30 05:35:22;;;;;;;4.78;0.63;;;19.70;99.90;;;;;;5025669;28;20030;-70
2022/04/30 05:37:49;;;;;;;3.55;1.20;;;19.70;99.90;;;;;;5030090;28;20048;-70
2022/04/30 05:40:18;;;;;;;2.53;0.85;;;19.70;99.90;;;;;;5024523;28;20029;-70
2022/04/30 05:42:45;;;;;;;2.17;0.95;;;19.60;99.90;;;;;;5013914;28;20026;-70
2022/04/30 05:45:13;;;;;;;3.38;1.35;;;19.60;99.90;;;;;;5019135;28;20604;-70
2022/04/30 05:47:40;;;;;;;4.13;1.00;;;19.60;99.90;;;;;;5042533;28;20067;-70
2022/04/30 05:50:09;;;;;;;4.45;0.85;;;19.60;99.90;;;;;;5030614;28;20033;-69
2022/04/30 05:52:36;;;;;;;1.65;0.80;;;19.70;99.90;;;;;;5025851;28;20517;-70
2022/04/30 05:55:05;;;;;;;2.30;0.90;;;19.60;99.90;;;;;;5018140;28;20033;-70
2022/04/30 05:57:33;;;;;;;3.97;0.80;;;19.60;99.90;;;;;;5033553;28;20028;-70
2022/04/30 06:00:00;;;;;;;2.35;0.47;;;19.60;99.90;;;;;;5025265;28;20018;-70
2022/04/30 06:02:28;;;;;;;4.57;1.10;;;19.50;99.90;;;;;;5032449;28;20152;-70
2022/04/30 06:04:55;;;;;;;2.15;0.70;;;19.50;99.90;;;;;;5028064;28;20108;-69
2022/04/30 06:07:23;;;;;;;2.55;1.17;;;19.50;99.90;;;;;;5013325;28;20057;-70
2022/04/30 06:09:50;;;;;;;3.55;0.90;;;19.40;99.90;;;;;;5016285;28;20120;-70
2022/04/30 06:12:17;;;;;;;1.98;0.55;;;19.40;99.90;;;;;;5024638;28;20026;-69
2022/04/30 06:14:45;;;;;;;3.25;1.05;;;19.40;99.90;;;;;;5022089;28;20029;-70
2022/04/30 06:17:12;;;;;;;2.15;0.63;;;19.40;99.90;;;;;;5020879;28;20117;-70
2022/04/30 06:19:40;;;;;;;1.85;0.85;;;19.40;99.90;;;;;;5031207;28;20108;-69
2022/04/30 06:22:07;;;;;;;0.95;0.50;;;19.40;99.90;;;;;;5027630;28;20437;-70
2022/04/30 06:24:35;;;;;;;3.08;0.85;;;19.50;99.90;;;;;;5028188;28;20112;-70
2022/04/30 06:27:02;;;;;;;1.08;0.60;;;19.50;99.90;;;;;;5032757;28;20717;-70
2022/04/30 06:29:29;;;;;;;3.67;0.98;;;19.50;99.90;;;;;;5028028;28;20036;-70
2022/04/30 06:31:56;;;;;;;2.38;0.75;;;19.50;99.90;;;;;;5029082;28;20030;-70
2022/04/30 06:34:24;;;;;;;1.30;0.60;;;19.50;99.90;;;;;;5029628;28;20030;-70
2022/04/30 06:36:51;;;;;;;1.27;0.50;;;19.40;99.90;;;;;;5030111;28;20041;-69
2022/04/30 06:39:19;;;;;;;1.42;0.75;;;19.30;99.90;;;;;;5028205;28;20493;-70
2022/04/30 06:41:46;;;;;;;2.00;0.60;;;19.20;99.90;;;;;;5045638;28;20376;-70
2022/04/30 06:44:13;;;;;;;5.22;0.77;;;19.10;99.90;;;;;;5037579;28;20033;-70
2022/04/30 06:46:41;;;;;;;2.40;0.60;;;19.20;99.90;;;;;;5018234;28;20038;-70
2022/04/30 06:49:08;;;;;;;3.78;0.75;;;19.10;99.90;;;;;;5032187;28;20366;-69
2022/04/30 06:51:35;;;;;;;2.65;0.47;;;19.10;99.90;;;;;;5032900;28;20105;-69
2022/04/30 06:59:36;;;;;;;3.30;0.82;;;18.90;99.90;;;;;;5035411;28;20064;-69
2022/04/30 07:02:12;;;;;;;2.47;0.50;;;18.80;99.90;;;;;;5036468;28;20049;-69
2022/04/30 07:04:42;;;;;;;1.48;0.45;;;18.90;99.90;;;;;;5033808;28;20397;-69
2022/04/30 07:07:10;;;;;;;5.80;1.05;;;18.90;99.90;;;;;;5029534;28;20029;-70
2022/04/30 07:09:38;;;;;;;1.77;0.80;;;18.80;99.90;;;;;;5033003;28;20529;-70
2022/04/30 07:12:09;;;;;;;2.13;0.88;;;18.80;99.90;;;;;;5035860;28;21011;-70
2022/04/30 07:14:40;;;;;;;5.15;0.93;;;18.70;99.90;;;;;;5038139;28;20033;-69
2022/04/30 07:17:09;;;;;;;1.30;0.70;;;18.60;99.90;;;;;;5031845;28;20124;-69
2022/04/30 07:19:37;;;;;;;2.05;0.88;;;18.50;99.90;;;;;;5029127;28;20526;-71
2022/04/30 07:22:07;;;;;;;2.60;0.68;;;18.50;99.90;;;;;;5025779;28;20030;-70
2022/04/30 07:24:36;;;;;;;1.52;0.55;;;18.30;99.90;;;;;;5028828;28;20486;-71
2022/04/30 07:27:04;;;;;;;4.78;0.82;;;18.30;99.90;;;;;;5025458;28;20034;-71
2022/04/30 07:29:32;;;;;;;2.63;0.57;;;18.20;99.90;;;;;;5034680;28;20540;-71
2022/04/30 07:32:00;;;;;;;3.22;0.60;;;18.10;99.90;;;;;;5034843;28;20026;-71
2022/04/30 07:34:28;;;;;;;1.27;0.80;;;18.00;99.90;;;;;;5034387;28;20437;-71
2022/04/30 07:36:56;;;;;;;2.53;1.90;;;18.00;99.90;;;;;;5034170;28;20029;-71
2022/04/30 07:39:24;;;;;;;4.95;2.92;;;18.00;99.90;;;;;;5031945;28;20026;-71
2022/04/30 07:41:53;;;;;;;6.30;2.78;;;18.00;99.90;;;;;;5031070;28;20398;-71
2022/04/30 07:44:20;;;;;;;5.32;2.10;;;18.00;99.90;;;;;;5021675;28;20044;-70
2022/04/30 07:46:48;;;;;;;6.15;2.30;;;17.90;99.90;;;;;;5033113;28;20033;-71
2022/04/30 07:49:15;;;;;;;4.05;1.98;;;17.90;99.90;;;;;;5033007;28;20037;-71
2022/04/30 07:51:52;;;;;;;3.53;1.90;;;17.80;99.90;;;;;;5034454;28;20068;-71
2022/04/30 07:54:20;;;;;;;3.10;1.17;;;17.80;99.90;;;;;;5021380;28;20497;-71
2022/04/30 07:56:52;;;;;;;2.05;1.10;;;17.80;99.90;;;;;;5034481;28;20069;-71
2022/04/30 07:59:19;;;;;;;11.85;1.00;;;17.80;99.90;;;;;;5035259;28;20021;-71
2022/04/30 08:01:46;;;;;;;1.40;0.70;;;17.90;99.90;;;;;;5029811;28;20371;-71
2022/04/30 08:04:14;;;;;;;2.80;1.10;;;17.80;99.90;;;;;;5035656;28;20064;-71
2022/04/30 08:06:41;;;;;;;2.75;0.90;;;17.80;99.90;;;;;;5028982;28;20082;-71
2022/04/30 08:09:09;;;;;;;2.47;1.23;;;17.80;99.90;;;;;;5020584;28;20065;-71
2022/04/30 08:11:36;;;;;;;2.88;1.05;;;17.80;99.90;;;;;;5038075;28;20027;-71
2022/04/30 08:14:03;;;;;;;3.55;1.00;;;17.70;99.90;;;;;;5030849;28;20035;-71
2022/04/30 08:16:31;;;;;;;4.22;1.17;;;17.70;99.90;;;;;;5033580;28;20022;-70
2022/04/30 08:18:58;;;;;;;4.25;1.15;;;17.70;99.90;;;;;;5033890;28;20036;-71
2022/04/30 08:21:26;;;;;;;2.83;1.08;;;17.80;99.90;;;;;;5029356;28;20482;-71
2022/04/30 08:23:53;;;;;;;3.13;1.42;;;17.90;99.90;;;;;;5029122;28;20061;-71
2022/04/30 08:26:21;;;;;;;2.50;1.40;;;18.00;99.90;;;;;;5034463;28;20025;-71
2022/04/30 08:28:48;;;;;;;3.20;1.50;;;18.00;99.90;;;;;;5035659;28;20488;-71
2022/04/30 08:31:15;;;;;;;5.57;1.48;;;17.90;99.90;;;;;;5035029;28;20481;-70
2022/04/30 08:33:42;;;;;;;5.80;1.92;;;17.90;99.90;;;;;;5030918;28;20025;-71
2022/04/30 08:36:10;;;;;;;5.63;1.75;;;17.80;99.90;;;;;;5033963;28;20385;-70
2022/04/30 08:38:37;;;;;;;11.60;2.95;;;17.90;99.90;;;;;;5033742;28;20025;-71
2022/04/30 08:41:08;;;;;;;7.28;3.13;;;18.00;99.90;;;;;;5034379;28;20037;-71
2022/04/30 08:43:38;;;;;;;3.72;2.03;;;17.90;99.90;;;;;;5031519;28;20087;-71
2022/04/30 08:46:06;;;;;;;6.53;2.42;;;17.80;99.90;;;;;;5029694;28;20025;-71
2022/04/30 08:48:34;;;;;;;5.57;2.08;;;17.80;99.90;;;;;;5032974;28;20053;-70
2022/04/30 08:51:02;;;;;;;5.03;1.83;;;17.70;99.90;;;;;;5033132;28;20025;-70
2022/04/30 08:53:29;;;;;;;6.57;2.85;;;17.70;99.90;;;;;;5033643;28;20053;-71
2022/04/30 08:55:57;;;;;;;9.00;3.63;;;17.60;99.90;;;;;;5033842;28;20390;-71
2022/04/30 08:58:24;;;;;;;7.75;3.70;;;17.60;99.90;;;;;;5033400;28;20061;-70
2022/04/30 09:00:51;;;;;;;8.10;4.90;;;17.60;99.90;;;;;;5033766;28;20026;-71
2022/04/30 09:03:21;;;;;;;8.65;4.57;;;17.50;99.90;;;;;;5032477;28;20045;-71
2022/04/30 09:05:49;;;;;;;7.72;4.25;;;17.50;99.90;;;;;;5028273;28;20030;-70
2022/04/30 09:08:16;;;;;;;7.18;3.85;;;17.50;99.90;;;;;;5032620;28;20040;-70
2022/04/30 09:10:44;;;;;;;7.13;4.28;;;17.50;99.90;;;;;;5036916;28;20053;-69
2022/04/30 09:13:16;;;;;;;7.40;4.55;;;17.40;99.90;;;;;;5032535;28;20570;-71
2022/04/30 09:15:45;;;;;;;6.88;4.75;;;17.30;99.90;;;;;;5027332;28;20026;-69
2022/04/30 09:18:13;;;;;;;10.02;8.07;;;17.40;99.90;;;;;;5032364;28;20108;-69
2022/04/30 09:20:51;;;;;;;12.10;9.85;;;17.40;99.90;;;;;;5033080;28;20087;-69
2022/04/30 09:23:31;;;;;;;7.30;4.68;;;17.40;99.90;;;;;;5032952;28;20036;-69
2022/04/30 09:26:03;;;;;;;11.15;4.70;;;17.40;99.90;;;;;;5031421;28;20397;-69
2022/04/30 09:28:42;;;;;;;6.47;3.35;;;17.50;99.90;;;;;;5019349;28;20423;-69
2022/04/30 09:31:09;;;;;;;6.63;3.40;;;17.50;99.90;;;;;;5022839;28;20038;-69
2022/04/30 09:33:38;;;;;;;6.95;4.20;;;17.50;99.90;;;;;;5019462;28;20113;-69
2022/04/30 09:38:53;;;;;;;8.50;4.45;;;17.50;99.90;;;;;;5034423;28;20056;-69
2022/04/30 09:41:28;;;;;;;6.50;3.78;;;17.50;99.90;;;;;;5021745;28;20430;-69
2022/04/30 09:44:04;;;;;;;6.53;3.67;;;17.50;99.90;;;;;;5022396;28;20065;-69
2022/04/30 09:46:38;;;;;;;6.63;4.15;;;17.40;99.90;;;;;;5030175;28;20018;-69
2022/04/30 09:54:41;;;;;;;9.00;4.88;;;17.20;99.90;;;;;;5032988;28;20092;-69
2022/04/30 09:57:09;;;;;;;7.30;4.40;;;17.20;99.90;;;;;;5033333;28;20084;-70
2022/04/30 09:59:39;;;;;;;7.80;4.18;;;17.10;99.90;;;;;;5024449;28;20135;-69
2022/04/30 10:02:08;;;;;;;7.55;4.07;;;17.10;99.90;;;;;;5031699;28;20455;-69
2022/04/30 10:04:36;;;;;;;4.88;2.92;;;17.00;99.90;;;;;;5036570;28;20030;-69
2022/04/30 10:07:06;;;;;;;5.63;2.70;;;17.00;99.90;;;;;;5031087;28;20026;-69
2022/04/30 10:09:42;;;;;;;7.85;2.28;;;17.00;99.90;;;;;;5030894;28;20413;-69
2022/04/30 10:12:27;;;;;;;4.40;2.05;;;17.00;99.90;;;;;;5031012;28;20048;-69
2022/04/30 10:15:16;;;;;;;4.28;1.83;;;16.90;99.90;;;;;;5031207;28;20073;-70
2022/04/30 10:17:47;;;;;;;4.43;1.73;;;16.90;99.90;;;;;;5031460;28;20032;-69
2022/04/30 10:20:34;;;;;;;3.70;1.40;;;16.90;99.90;;;;;;5023941;28;20033;-70
2022/04/30 10:23:03;;;;;;;3.53;2.10;;;16.90;99.90;;;;;;5031084;28;20540;-69
2022/04/30 10:25:48;;;;;;;4.25;1.50;;;16.80;99.90;;;;;;5032296;28;20040;-69
2022/04/30 10:28:21;;;;;;;9.68;2.72;;;16.80;99.90;;;;;;5031446;28;20034;-69
2022/04/30 10:31:03;;;;;;;4.03;1.85;;;16.70;99.90;;;;;;5030681;28;20033;-69
2022/04/30 10:33:31;;;;;;;4.15;1.67;;;16.60;99.90;;;;;;5032099;28;20032;-69
2022/04/30 10:36:10;;;;;;;4.38;1.30;;;16.50;99.90;;;;;;5009601;28;20026;-69
2022/04/30 10:38:38;;;;;;;2.72;1.33;;;16.60;99.90;;;;;;5029649;28;20374;-69
2022/04/30 10:41:09;;;;;;;2.42;1.20;;;16.50;99.90;;;;;;5024259;28;20024;-69
2022/04/30 10:43:42;;;;;;;4.03;0.93;;;16.50;99.90;;;;;;5030148;28;20017;-69
2022/04/30 10:46:21;;;;;;;5.70;1.20;;;16.40;99.90;;;;;;5031662;28;20039;-69
2022/04/30 10:48:49;;;;;;;4.10;1.00;;;16.40;99.90;;;;;;5025192;28;20030;-69
2022/04/30 10:51:38;;;;;;;4.30;0.60;;;16.40;99.90;;;;;;5031722;28;20021;-68
2022/04/30 10:54:20;;;;;;;2.95;0.70;;;16.30;99.90;;;;;;5051441;28;20481;-68
2022/04/30 10:56:57;;;;;;;3.50;0.60;;;16.30;99.90;;;;;;5037121;28;20025;-68
2022/04/30 10:59:26;;;;;;;4.63;1.48;;;16.30;99.90;;;;;;5017803;28;20439;-68
2022/04/30 11:01:54;;;;;;;3.73;0.63;;;16.20;99.90;;;;;;4922581;28;3091448;-68
2022/04/30 11:04:22;;;;;;;4.32;0.85;;;16.20;99.90;;;;;;5012995;28;20030;-69
2022/04/30 11:06:52;;;;;;;2.63;0.63;;;16.20;99.90;;;;;;5012740;28;20018;-69
2022/04/30 11:09:21;;;;;;;3.20;0.88;;;16.10;99.90;;;;;;5011792;28;20113;-69
2022/04/30 11:11:51;;;;;;;2.72;0.73;;;16.10;99.90;;;;;;5010348;28;20048;-69
2022/04/30 11:14:22;;;;;;;6.13;0.73;;;16.10;99.90;;;;;;4994893;28;20125;-69
2022/04/30 11:16:50;;;;;;;8.57;0.90;;;16.10;99.90;;;;;;5008863;28;20030;-69
2022/04/30 11:19:20;;;;;;;2.60;0.55;;;16.00;99.90;;;;;;5011947;28;20053;-69
2022/04/30 11:21:52;;;;;;;3.58;0.73;;;16.00;99.90;;;;;;4999361;28;20372;-69
2022/04/30 11:24:31;;;;;;;4.03;0.55;;;16.00;99.90;;;;;;4992677;28;20038;-69
2022/04/30 11:27:03;;;;;;;5.15;0.47;;;16.00;99.90;;;;;;5011270;28;20036;-69
2022/04/30 11:29:51;;;;;;;3.83;0.47;;;15.90;99.90;;;;;;5013560;28;20729;-70
2022/04/30 11:32:32;;;;;;;1.73;0.50;;;15.90;99.90;;;;;;5013773;28;20064;-70
2022/04/30 11:35:04;;;;;;;1.80;0.60;;;16.00;99.90;;;;;;5014323;28;20034;-70
2022/04/30 11:37:44;;;;;;;3.95;0.60;;;15.90;99.90;;;;;;5012570;28;20072;-70
2022/04/30 11:40:12;;;;;;;2.85;0.40;;;15.80;99.90;;;;;;4996626;28;20030;-70
2022/04/30 11:42:40;;;;;;;4.35;0.43;;;15.80;99.90;;;;;;5014403;28;20046;-69
2022/04/30 11:45:08;;;;;;;3.17;0.55;;;15.90;99.90;;;;;;5014535;28;20022;-69
2022/04/30 11:47:36;;;;;;;4.35;0.60;;;15.90;99.90;;;;;;5015506;28;20080;-70
2022/04/30 11:50:04;;;;;;;2.25;0.52;;;15.80;99.90;;;;;;5012891;28;20018;-69
2022/04/30 11:52:31;;;;;;;3.88;0.55;;;15.80;99.90;;;;;;5014087;28;20113;-69
2022/04/30 11:55:05;;;;;;;2.97;0.88;;;15.80;99.90;;;;;;4996891;28;20045;-70
2022/04/30 11:57:41;;;;;;;3.85;0.38;;;15.70;99.90;;;;;;5009835;28;20378;-70
2022/04/30 12:00:09;;;;;;;4.55;0.35;;;15.80;99.90;;;;;;5014415;28;20108;-69
2022/04/30 12:02:39;;;;;;;2.40;0.43;;;15.80;99.90;;;;;;5014158;28;20372;-69
2022/04/30 12:05:07;;;;;;;2.03;0.45;;;15.80;99.90;;;;;;5013150;28;20057;-69
2022/04/30 12:07:44;;;;;;;1.55;0.20;;;15.70;99.90;;;;;;5010968;28;20434;-69
2022/04/30 12:10:26;;;;;;;4.05;0.32;;;15.60;99.90;;;;;;5005954;28;20026;-69
2022/04/30 12:12:54;;;;;;;2.25;0.43;;;15.70;99.90;;;;;;4996836;28;20030;-69
2022/04/30 12:15:25;;;;;;;2.47;0.40;;;15.60;99.90;;;;;;5009826;28;20040;-69
2022/04/30 12:27:02;;;;;;;4.55;0.73;;;15.60;99.90;;;;;;5009384;28;20099;-69
2022/04/30 12:29:32;;;;;;;2.83;0.40;;;15.60;99.90;;;;;;5011219;28;20034;-69
2022/04/30 12:32:04;;;;;;;4.45;0.50;;;15.50;99.90;;;;;;5013035;28;20026;-69
2022/04/30 12:34:41;;;;;;;4.57;0.45;;;15.50;99.90;;;;;;5013496;28;20030;-69
2022/04/30 12:37:09;;;;;;;4.45;0.63;;;15.40;99.90;;;;;;5011725;28;20470;-70
2022/04/30 12:39:37;;;;;;;3.15;0.60;;;15.30;99.90;;;;;;5012919;28;20025;-69
2022/04/30 12:42:09;;;;;;;1.65;0.40;;;15.40;99.90;;;;;;5012035;28;20022;-69
2022/04/30 12:44:36;;;;;;;2.78;0.60;;;15.40;99.90;;;;;;5013072;28;20026;-69
2022/04/30 12:47:04;;;;;;;2.97;0.60;;;15.30;99.90;;;;;;5012975;28;20056;-69
2022/04/30 12:49:31;;;;;;;3.35;0.85;;;15.30;99.90;;;;;;5013173;28;20459;-69
2022/04/30 12:51:58;;;;;;;2.17;0.70;;;15.30;99.90;;;;;;5012310;28;20057;-69
2022/04/30 12:54:26;;;;;;;5.10;0.70;;;15.20;99.90;;;;;;5013072;28;20083;-69
2022/04/30 12:56:55;;;;;;;2.67;0.63;;;15.20;99.90;;;;;;5011038;28;20061;-70
2022/04/30 12:59:22;;;;;;;3.58;0.98;;;15.20;99.90;;;;;;5012682;28;20112;-69
2022/04/30 13:01:50;;;;;;;3.25;0.60;;;15.20;99.90;;;;;;5010416;28;20029;-70
2022/04/30 13:04:17;;;;;;;2.47;0.88;;;15.10;99.90;;;;;;5032019;28;20493;-70
2022/04/30 13:06:44;;;;;;;1.92;0.70;;;15.20;99.90;;;;;;5032121;28;20370;-70
2022/04/30 13:14:42;;;;;;;5.65;0.60;;;15.20;99.90;;;;;;5028288;28;20091;-70
2022/04/30 13:17:11;;;;;;;4.30;0.73;;;15.20;99.90;;;;;;5031221;28;20029;-70
2022/04/30 13:19:40;;;;;;;2.78;0.52;;;15.10;99.90;;;;;;5029195;28;20038;-70
2022/04/30 13:22:07;;;;;;;2.13;0.50;;;15.00;99.90;;;;;;5013645;28;20474;-70
2022/04/30 13:24:35;;;;;;;1.65;0.60;;;15.10;99.90;;;;;;5031690;28;20021;-70
2022/04/30 13:27:02;;;;;;;3.50;0.82;;;15.00;99.90;;;;;;5030857;28;20025;-70
2022/04/30 13:29:31;;;;;;;4.97;0.65;;;14.90;99.90;;;;;;5031292;28;20021;-70
2022/04/30 13:31:58;;;;;;;3.63;0.52;;;14.80;99.90;;;;;;5029289;28;20079;-70
2022/04/30 13:34:25;;;;;;;1.83;0.70;;;14.80;99.90;;;;;;5031653;28;20029;-70
2022/04/30 13:36:52;;;;;;;3.92;0.40;;;14.80;99.90;;;;;;5029866;28;20099;-69
2022/04/30 13:39:20;;;;;;;3.28;0.85;;;14.80;99.90;;;;;;5033650;28;20032;-70
2022/04/30 13:41:47;;;;;;;2.30;0.40;;;14.80;99.90;;;;;;5031065;28;20029;-70
2022/04/30 13:44:14;;;;;;;4.22;0.50;;;14.70;99.90;;;;;;5029285;28;20025;-70
2022/04/30 13:46:42;;;;;;;2.80;0.60;;;14.60;99.90;;;;;;5018379;28;20021;-70